• Join FlightAware (Why Join?)
  • Login
  • US Flag 
08:28PM EDT


 

Airport Tracker/Info


-or-


 

Live Flight TrackerFlight Track Log ✈ N36VP ✈ 08-May-2013 ✈ KLCK - KTUP

Flight Track Log - Related Links

Times and Time Zones

All times are in EDT time to prevent confusion due to time zone crossing. See the N36VP flight status page for this flight to view local times or setup timezone preferences in your user account.

Time Position Orientation Groundspeed Altitude Reporting Facility
EDT Latitude Longitude Course Direction KTS MPH feet Rate Location/Type
07:49PM 39.8058 -82.9394 231° Southwest 97 112 900  Level Indianapolis Center
07:49PM 39.8011 -82.9469 229° Southwest 93 107 1,100 480 Climbing Indianapolis Center
07:50PM 39.7808 -82.9692 220° Southwest 98 113 1,600 360 Climbing Indianapolis Center
07:52PM 39.7581 -82.9964 223° Southwest 118 136 1,900 300 Climbing Indianapolis Center
07:52PM 39.7522 -82.9978 190° South 106 122 2,000 480 Climbing Indianapolis Center
07:53PM 39.7247 -82.9953 176° South 124 143 2,400 540 Climbing Indianapolis Center
07:53PM 39.7189 -82.9922 158° South 116 133 2,600 480 Climbing Indianapolis Center
07:54PM 39.6914 -82.9914 179° South 117 135 2,900 360 Climbing Indianapolis Center
07:54PM 39.6861 -82.9908 175° South 117 135 3,000 480 Climbing Indianapolis Center
07:55PM 39.6575 -82.9983 191° South 131 151 3,400 360 Climbing Indianapolis Center
07:55PM 39.6539 -83.0019 218° Southwest 122 140 3,400 480 Level Indianapolis Center
07:56PM 39.6442 -83.0400 252° West 120 138 3,900 480 Climbing Indianapolis Center
07:56PM 39.6439 -83.0467 267° West 128 147 3,900 480 Level Indianapolis Center
07:57PM 39.6372 -83.0800 255° West 113 130 4,400 660 Climbing Indianapolis Center
07:57PM 39.6325 -83.0917 242° Southwest 117 135 4,600 600 Climbing Indianapolis Center
07:58PM 39.6261 -83.1192 253° West 111 128 5,000 540 Climbing Indianapolis Center
07:58PM 39.6228 -83.1286 245° Southwest 110 127 5,200 360 Climbing Indianapolis Center
07:59PM 39.6192 -83.1564 260° West 108 124 5,400 360 Climbing Indianapolis Center
07:59PM 39.6164 -83.1681 253° West 109 125 5,600 480 Climbing Indianapolis Center
08:00PM 39.6081 -83.1956 249° West 113 130 5,900 360 Climbing Indianapolis Center
08:00PM 39.6053 -83.2072 253° West 113 130 6,000 180 Climbing Indianapolis Center
08:01PM 39.5989 -83.2378 255° West 126 145 6,100  Climbing Indianapolis Center
08:01PM 39.5964 -83.2517 257° West 122 140 6,000 -120 Descending Indianapolis Center
08:02PM 39.5889 -83.2908 256° West 147 169 6,000  Level Indianapolis Center
08:02PM 39.5850 -83.3053 251° West 142 163 6,000 60 Level Indianapolis Center
08:03PM 39.5767 -83.3436 254° West 154 177 6,100 60 Climbing Indianapolis Center
08:03PM 39.5725 -83.3592 251° West 153 176 6,100  Level Indianapolis Center
08:04PM 39.5644 -83.3989 255° West 158 182 6,100 -120 Level Indianapolis Center
08:04PM 39.5611 -83.4158 256° West 158 182 6,000  Descending Indianapolis Center
08:05PM 39.5519 -83.4569 254° West 165 190 6,100 60 Climbing Indianapolis Center
08:05PM 39.5481 -83.4731 253° West 162 186 6,100 -120 Level Indianapolis Center
08:06PM 39.5394 -83.5122 254° West 158 182 6,000  Descending Indianapolis Center
08:06PM 39.5353 -83.5281 251° West 159 183 6,100 60 Climbing Indianapolis Center
08:07PM 39.5272 -83.5647 254° West 154 177 6,100 60 Level Indianapolis Center
08:07PM 39.5231 -83.5819 253° West 156 180 6,200 60 Climbing Indianapolis Center
08:08PM 39.5147 -83.6200 254° West 161 185 6,200  Level Indianapolis Center
08:08PM 39.5103 -83.6364 251° West 155 178 6,200  Level Indianapolis Center
08:09PM 39.5022 -83.6753 255° West 158 182 6,200 -120 Level Indianapolis Center
08:09PM 39.4903 -83.6986 236° Southwest 164 189 6,100  Descending Indianapolis Center
08:10PM 39.4758 -83.7206 230° Southwest 167 192 6,200 60 Climbing Indianapolis Center
08:10PM 39.4622 -83.7442 233° Southwest 163 188 6,200 -120 Level Indianapolis Center
08:11PM 39.4367 -83.7903 234° Southwest 159 183 6,100 -60 Descending Indianapolis Center
08:12PM 39.4211 -83.8444 250° West 157 181 6,100 -120 Level Indianapolis Center
08:13PM 39.4058 -83.8994 250° West 158 182 5,900 -240 Descending Indianapolis Center
08:14PM 39.3939 -83.9547 254° West 159 183 5,700 -240 Descending Indianapolis Center
08:15PM 39.3833 -84.0142 257° West 164 189 5,500 -300 Descending Indianapolis Center
08:16PM 39.3703 -84.0719 254° West 165 190 5,200 -300 Descending Indianapolis Center
08:17PM 39.3594 -84.1286 256° West 163 188 4,900 -300 Descending Indianapolis Center
08:18PM 39.3467 -84.1864 254° West 165 190 4,700 -300 Descending Indianapolis Center
08:19PM 39.3350 -84.2456 256° West 167 192 4,400 -300 Descending Indianapolis Center
08:20PM 39.3228 -84.3039 255° West 168 193 4,100 -240 Descending Indianapolis Center
08:22PM 39.3111 -84.3617 255° West 166 191 4,000  Descending Indianapolis Center
08:23PM 39.2978 -84.4228 254° West 156 180 4,100  Climbing Indianapolis Center
08:24PM 39.2869 -84.4719 254° West 145 167 4,100 -60 Level Indianapolis Center
08:25PM 39.2756 -84.5244 254° West 148 170 4,000  Descending Indianapolis Center
08:26PM 39.2658 -84.5733 256° West 143 165 4,100  Climbing Indianapolis Center
08:27PM 39.2550 -84.6200 253° West 137 158 4,100  Level Indianapolis Center
08:27PM 39.2500 -84.6333 244° Southwest 142 163 4,100  Level Cincinnati TRACON
08:28PM 39.2500 -84.6833 270° West 150 173 4,100  Level Cincinnati TRACON
08:29PM 39.2333 -84.7500 252° West 151 174 4,100 -60 Level Cincinnati TRACON
08:30PM 39.2167 -84.8000 247° West 152 175 4,000  Descending Cincinnati TRACON
08:31PM 39.2167 -84.8500 270° West 148 170 4,100  Climbing Cincinnati TRACON
08:32PM 39.2003 -84.8858 239° Southwest 148 170 4,100  Level Indianapolis Center
08:33PM 39.1881 -84.9375 253° West 150 173 4,100  Level Indianapolis Center
08:34PM 39.1769 -84.9894 255° West 150 173 4,100  Level Indianapolis Center
08:35PM 39.1675 -85.0408 257° West 150 173 4,100  Level Indianapolis Center
08:36PM 39.1558 -85.0936 254° West 152 175 4,100  Level Indianapolis Center
08:37PM 39.1453 -85.1472 256° West 154 177 4,100  Level Indianapolis Center
08:38PM 39.1336 -85.1986 254° West 151 174 4,100  Level Indianapolis Center
08:39PM 39.1197 -85.2594 254° West 148 170 4,100  Level Indianapolis Center
08:40PM 39.1100 -85.3094 256° West 146 168 4,100  Level Indianapolis Center
08:41PM 39.0983 -85.3600 253° West 147 169 4,100  Level Indianapolis Center
08:42PM 39.0867 -85.4103 253° West 147 169 4,100  Level Indianapolis Center
08:43PM 39.0767 -85.4611 256° West 147 169 4,100  Level Indianapolis Center
08:44PM 39.0658 -85.5122 255° West 147 169 4,100  Level Indianapolis Center
08:45PM 39.0550 -85.5622 254° West 147 169 4,100  Level Indianapolis Center
08:46PM 39.0428 -85.6125 253° West 147 169 4,100  Level Indianapolis Center
08:47PM 38.9914 -85.6428 205° Southwest 167 192 4,100  Level Indianapolis Center
08:48PM 38.9525 -85.6719 210° Southwest 164 189 4,100  Level Indianapolis Center
08:49PM 38.9139 -85.7003 210° Southwest 162 186 4,100  Level Indianapolis Center
08:50PM 38.8744 -85.7269 208° Southwest 161 185 4,100  Level Indianapolis Center
08:51PM 38.8356 -85.7547 209° Southwest 160 184 4,100  Level Indianapolis Center
08:52PM 38.7978 -85.7814 209° Southwest 157 181 4,100  Level Indianapolis Center
08:53PM 38.7594 -85.8083 209° Southwest 157 181 4,100  Level Indianapolis Center
08:54PM 38.7208 -85.8350 208° Southwest 157 181 4,100  Level Indianapolis Center
08:55PM 38.6833 -85.8622 210° Southwest 157 181 4,100  Level Indianapolis Center
08:56PM 38.6397 -85.8922 208° Southwest 159 183 4,100  Level Indianapolis Center
08:57PM 38.6025 -85.9186 209° Southwest 154 177 4,100  Level Indianapolis Center
08:58PM 38.5642 -85.9453 209° Southwest 156 180 4,100  Level Indianapolis Center
08:59PM 38.5258 -85.9708 208° Southwest 155 178 4,100  Level Indianapolis Center
09:00PM 38.4872 -85.9983 209° Southwest 157 181 4,100  Level Indianapolis Center
09:01PM 38.4483 -86.0256 209° Southwest 158 182 4,100  Level Indianapolis Center
09:02PM 38.4094 -86.0522 208° Southwest 159 183 4,100  Level Indianapolis Center
09:04PM 38.3636 -86.0853 209° Southwest 157 181 4,100  Level Indianapolis Center
09:05PM 38.3244 -86.1122 208° Southwest 158 182 4,100  Level Indianapolis Center
09:06PM 38.2856 -86.1397 209° Southwest 159 183 4,100  Level Indianapolis Center
09:07PM 38.2467 -86.1653 207° Southwest 158 182 4,100  Level Indianapolis Center
09:08PM 38.2081 -86.1928 209° Southwest 158 182 4,100  Level Indianapolis Center
09:09PM 38.1681 -86.2206 209° Southwest 159 183 4,100  Level Indianapolis Center
09:10PM 38.1297 -86.2467 208° Southwest 159 183 4,100  Level Indianapolis Center
09:11PM 38.0911 -86.2739 209° Southwest 158 182 4,100  Level Indianapolis Center
09:12PM 38.0522 -86.3000 208° Southwest 157 181 4,100  Level Indianapolis Center
09:13PM 38.0142 -86.3278 210° Southwest 157 181 4,100  Level Indianapolis Center
09:14PM 37.9753 -86.3536 208° Southwest 157 181 4,100  Level Indianapolis Center
09:15PM 37.9289 -86.3847 208° Southwest 156 180 4,100  Level Indianapolis Center
09:16PM 37.8897 -86.4128 209° Southwest 158 182 4,100  Level Indianapolis Center
09:17PM 37.8511 -86.4406 210° Southwest 158 182 4,100  Level Indianapolis Center
09:18PM 37.8108 -86.4669 207° Southwest 160 184 4,100  Level Indianapolis Center
09:19PM 37.7711 -86.4931 207° Southwest 160 184 4,100  Level Indianapolis Center
09:20PM 37.7328 -86.5208 210° Southwest 159 183 4,100  Level Indianapolis Center
09:21PM 37.6925 -86.5478 208° Southwest 161 185 4,100  Level Indianapolis Center
09:22PM 37.6542 -86.5750 209° Southwest 159 183 4,100  Level Indianapolis Center
09:23PM 37.6142 -86.6019 208° Southwest 160 184 4,100  Level Indianapolis Center
09:24PM 37.5750 -86.6272 207° Southwest 159 183 4,100  Level Indianapolis Center
09:25PM 37.5361 -86.6550 210° Southwest 159 183 4,100  Level Indianapolis Center
09:26PM 37.4892 -86.6836 206° Southwest 157 181 4,100  Level Indianapolis Center
09:27PM 37.4508 -86.7117 210° Southwest 157 181 4,100  Level Indianapolis Center
09:28PM 37.4117 -86.7375 208° Southwest 159 183 4,100  Level Indianapolis Center
09:29PM 37.3728 -86.7633 208° Southwest 158 182 4,100  Level Indianapolis Center
09:29PM 37.3614 -86.7717 210° Southwest 161 185 4,100  Level Memphis Center
09:30PM 37.3225 -86.7969 207° Southwest 161 185 4,100  Level Memphis Center
09:31PM 37.2878 -86.8219 210° Southwest 157 181 4,100  Level Memphis Center
09:32PM 37.2508 -86.8469 208° Southwest 156 180 4,100  Level Memphis Center
09:33PM 37.2142 -86.8747 211° Southwest 156 180 4,100 -60 Level Memphis Center
09:34PM 37.1711 -86.9000 205° Southwest 156 180 4,000  Descending Memphis Center
09:35PM 37.1364 -86.9250 210° Southwest 157 181 4,100  Climbing Memphis Center
09:36PM 37.0936 -86.9528 207° Southwest 155 178 4,100  Level Memphis Center
09:37PM 37.0528 -86.9831 211° Southwest 157 181 4,100  Level Memphis Center
09:38PM 37.0197 -87.0000 202° Southwest 155 178 4,100  Level Memphis Center
09:39PM 36.9769 -87.0306 210° Southwest 156 180 4,100  Level Memphis Center
09:40PM 36.9400 -87.0553 208° Southwest 156 180 4,100  Level Memphis Center
09:41PM 36.9031 -87.0775 206° Southwest 154 177 4,100  Level Memphis Center
09:42PM 36.8683 -87.1050 212° Southwest 158 182 4,100  Level Memphis Center
09:43PM 36.8272 -87.1275 204° Southwest 156 180 4,100  Level Memphis Center
09:44PM 36.7864 -87.1575 210° Southwest 158 182 4,100  Level Memphis Center
09:45PM 36.7494 -87.1847 211° Southwest 159 183 4,100  Level Memphis Center
09:46PM 36.7147 -87.2044 204° Southwest 155 178 4,100  Level Memphis Center
09:47PM 36.6736 -87.2344 210° Southwest 159 183 4,100  Level Memphis Center
09:48PM 36.6328 -87.2592 206° Southwest 157 181 4,100  Level Memphis Center
09:49PM 36.5958 -87.2867 211° Southwest 157 181 4,100  Level Memphis Center
09:50PM 36.5547 -87.3114 206° Southwest 157 181 4,100  Level Memphis Center
09:51PM 36.5239 -87.3306 207° Southwest 157 181 4,100  Level Memphis Center
09:52PM 36.4850 -87.3578 209° Southwest 163 188 4,100  Level Memphis Center
09:53PM 36.4458 -87.3800 205° Southwest 163 188 4,100 -60 Level Memphis Center
09:54PM 36.4069 -87.4097 212° Southwest 158 182 4,000  Descending Memphis Center
09:55PM 36.3681 -87.4317 204° Southwest 158 182 4,100  Climbing Memphis Center
09:56PM 36.3289 -87.4589 209° Southwest 158 182 4,000 -60 Descending Memphis Center
09:57PM 36.2900 -87.4861 209° Southwest 153 176 4,000  Level Memphis Center
09:58PM 36.2508 -87.5106 207° Southwest 153 176 4,100  Climbing Memphis Center
09:59PM 36.2181 -87.5322 208° Southwest 153 176 4,000  Descending Memphis Center
10:00PM 36.1769 -87.5569 206° Southwest 159 183 4,100  Climbing Memphis Center
10:01PM 36.1400 -87.5814 208° Southwest 154 177 4,000  Descending Memphis Center
10:02PM 36.1008 -87.6083 209° Southwest 154 177 4,100  Climbing Memphis Center
10:03PM 36.0639 -87.6328 208° Southwest 154 177 4,100 -60 Level Memphis Center
10:04PM 36.0228 -87.6597 208° Southwest 160 184 4,000  Descending Memphis Center
10:05PM 35.9839 -87.6842 207° Southwest 160 184 4,100  Climbing Memphis Center
10:06PM 35.9428 -87.7136 210° Southwest 154 177 4,000  Descending Memphis Center
10:07PM 35.9014 -87.7381 206° Southwest 154 177 4,100  Climbing Memphis Center
10:08PM 35.8644 -87.7622 208° Southwest 154 177 4,100  Level Memphis Center
10:09PM 35.8233 -87.7867 206° Southwest 160 184 4,100  Level Memphis Center
10:10PM 35.7842 -87.8133 209° Southwest 160 184 4,100 -60 Level Memphis Center
10:11PM 35.7453 -87.8403 209° Southwest 155 178 4,000  Descending Memphis Center
10:12PM 35.7081 -87.8617 205° Southwest 155 178 4,100  Climbing Memphis Center
10:13PM 35.6689 -87.8886 209° Southwest 155 178 4,000  Descending Memphis Center
10:14PM 35.6319 -87.9125 208° Southwest 155 178 4,100  Climbing Memphis Center
10:15PM 35.5928 -87.9367 207° Southwest 155 178 4,100 -60 Level Memphis Center
10:16PM 35.5597 -87.9581 208° Southwest 155 178 4,000  Descending Memphis Center
10:17PM 35.5228 -87.9822 208° Southwest 155 178 4,100  Climbing Memphis Center
10:18PM 35.4836 -88.0061 206° Southwest 155 178 4,000  Descending Memphis Center
10:19PM 35.4444 -88.0303 207° Southwest 155 178 4,100  Climbing Memphis Center
10:20PM 35.4094 -88.0542 209° Southwest 150 173 4,100 -60 Level Memphis Center
10:21PM 35.3639 -88.0833 208° Southwest 155 178 4,000  Descending Memphis Center
10:22PM 35.3269 -88.1047 205° Southwest 155 178 4,100  Climbing Memphis Center
10:23PM 35.2919 -88.1311 212° Southwest 155 178 4,000  Descending Memphis Center
10:24PM 35.2525 -88.1525 204° Southwest 155 178 4,100  Climbing Memphis Center
10:25PM 35.2133 -88.1789 209° Southwest 155 178 4,000 -60 Descending Memphis Center
10:26PM 35.1764 -88.2028 208° Southwest 155 178 4,000  Level Memphis Center
10:27PM 35.1369 -88.2242 204° Southwest 155 178 4,100  Climbing Memphis Center
10:28PM 35.1019 -88.2506 212° Southwest 155 178 4,000  Descending Memphis Center
10:29PM 35.0628 -88.2717 204° Southwest 155 178 4,100  Climbing Memphis Center
10:30PM 35.0256 -88.2981 210° Southwest 155 178 4,000  Descending Memphis Center
10:31PM 34.9864 -88.3217 206° Southwest 155 178 4,100  Climbing Memphis Center
10:32PM 34.9492 -88.3456 208° Southwest 155 178 4,100 -60 Level Memphis Center
10:33PM 34.9119 -88.3692 207° Southwest 155 178 4,000  Descending Memphis Center
10:34PM 34.8728 -88.3928 206° Southwest 155 178 4,100  Climbing Memphis Center
10:35PM 34.8356 -88.4192 210° Southwest 155 178 4,000 -60 Descending Memphis Center
10:36PM 34.7964 -88.4403 204° Southwest 155 178 4,000  Level Memphis Center
10:37PM 34.7592 -88.4611 205° Southwest 155 178 4,000  Level Memphis Center
10:38PM 34.7219 -88.4897 212° Southwest 155 178 4,000  Level Memphis Center
10:39PM 34.6847 -88.5108 205° Southwest 150 173 4,100  Climbing Memphis Center
10:40PM 34.6475 -88.5369 210° Southwest 155 178 4,000  Descending Memphis Center
10:41PM 34.6103 -88.5556 202° Southwest 155 178 4,100  Climbing Memphis Center
10:42PM 34.5711 -88.5839 211° Southwest 155 178 4,000  Descending Memphis Center
10:43PM 34.5358 -88.6050 206° Southwest 155 178 4,100  Climbing Memphis Center
10:44PM 34.4986 -88.6283 207° Southwest 155 178 4,000 -60 Descending Memphis Center
10:45PM 34.4636 -88.6492 206° Southwest 155 178 4,000  Level Memphis Center
10:46PM 34.4303 -88.6700 207° Southwest 150 173 4,000  Level Memphis Center
10:47PM 34.3992 -88.6858 203° Southwest 143 165 4,000  Level Memphis Center
10:48PM 34.3594 -88.6814 175° South 143 165 4,000  Level Memphis Center
10:49PM 34.3197 -88.6747 172° South 143 165 4,000  Level Memphis Center
10:50PM 34.2822 -88.6706 175° South 143 165 4,000  Level Memphis Center
10:51PM 34.2447 -88.6661 174° South 143 165 4,000  Level Memphis Center
10:52PM 34.2050 -88.6644 178° South 143 165 4,000 -300 Level Memphis Center
10:53PM 34.1844 -88.6950 231° Southwest 115 132 3,500 -660 Descending Memphis Center
10:54PM 34.1808 -88.7328 263° West 109 125 2,700 -720 Descending Memphis Center
10:55PM 34.1958 -88.7650 299° West 99 114 2,100 -480 Descending Memphis Center
10:56PM 34.2044 -88.7950 289° West 91 105 1,800 900 Descending Memphis Center
10:57PM 34.2111 -88.8275 284° West 91 105 4,000 1,080 Climbing Memphis Center
10:58PM 34.2158 -88.8575 281° West 91 105 4,000  Level Memphis Center
10:59PM 34.2225 -88.8903 284° West 91 105 4,000  Level Memphis Center